Portada
METAR-TAF:

METAR-TAF

Aeroports :

Kolda, Senegal

latitud: 12-53N, longitud: 014-58W, altitud: 10 m

Observació

L'informe es va fer fa 1 hora i 13 minuts, a les 16:00 UTC
Vent 2 kt del Sud-Oest
Temperatura 27°C
Humitat 94%
Pressió 1011 hPa
Visibilitat 10 km o més
Núvols disperses a una alçada de 1000 ft
Escasses núvols a una alçada de 3000 ft, Cumulonimbus.

METAR: GOGK 181600Z 22002KT 9999 SCT010 FEW030CB 27/26 Q1011

Hora: 17:13 (17:13 UTC)


TAF: manca

Observacions i pronòstics meteorològics de més de 4000 aeroports (METAR i TAF).

Les estacions disponibles són els punts grocs i vermells al mapa.

Posi el ratolí al punt desitjat per veure el nom de l'estació.

Feu clic per veure les observacions i els pronòstics meteorològics.

Per canviar el mapa: feu clic els botons verds amb una creu de color negre per apropar; al botó verd amb un guió per allunyar la imatge; o en les fletxes verdes per a mapes adjacents.


METAR-TAF: